Time,TemperatureF,DewpointF,PressureIn,WindDirection,WindDirectionDegrees,WindSpeedMPH,WindSpeedGustMPH,Humidity,HourlyPrecipIn,Conditions,Clouds,dailyrainin,SoftwareType,DateUTC
2013-03-05 00:02:00,47.0,-99.9,30.08,West,280,2.0,3.0,-999,-99.99,,,-99.99,,2013-03-05 08:02:00,
2013-03-05 00:11:00,47.0,-99.9,30.08,West,280,2.0,3.0,-999,-99.99,,,-99.99,,2013-03-05 08:11:00,
2013-03-05 00:21:00,47.0,-99.9,30.07,NW,310,2.0,3.0,-999,-99.99,,,-99.99,,2013-03-05 08:21:00,
2013-03-05 00:32:00,47.0,-99.9,30.07,NW,310,2.0,3.0,-999,-99.99,,,-99.99,,2013-03-05 08:32:00,
2013-03-05 00:42:00,48.0,-99.9,30.07,SW,228,4.0,4.0,-999,-99.99,,,-99.99,,2013-03-05 08:42:00,
2013-03-05 00:52:00,48.0,-99.9,30.07,SW,228,4.0,4.0,-999,-99.99,,,-99.99,,2013-03-05 08:52:00,
2013-03-05 01:02:00,48.0,-99.9,30.06,WSW,245,6.0,10.0,-999,-99.99,,,-99.99,,2013-03-05 09:02:00,
2013-03-05 01:11:00,48.0,-99.9,30.06,WSW,245,6.0,10.0,-999,-99.99,,,-99.99,,2013-03-05 09:11:00,
2013-03-05 01:22:00,48.0,-99.9,30.06,WSW,245,6.0,10.0,-999,-99.99,,,-99.99,,2013-03-05 09:22:00,
2013-03-05 01:32:00,49.0,-99.9,30.07,WSW,242,6.0,9.0,-999,-99.99,,,-99.99,,2013-03-05 09:32:00,
2013-03-05 01:43:00,49.0,-99.9,30.07,WSW,242,6.0,9.0,-999,-99.99,,,-99.99,,2013-03-05 09:43:00,
2013-03-05 01:52:00,48.0,-99.9,30.08,WSW,254,10.0,13.0,-999,-99.99,,,-99.99,,2013-03-05 09:52:00,
2013-03-05 02:02:00,48.0,-99.9,30.08,WSW,250,7.0,13.0,-999,-99.99,,,-99.99,,2013-03-05 10:02:00,
2013-03-05 02:11:00,48.0,-99.9,30.08,WSW,250,8.0,13.0,-999,-99.99,,,-99.99,,2013-03-05 10:11:00,
2013-03-05 02:22:00,48.0,-99.9,30.08,WSW,250,8.0,13.0,-999,-99.99,,,-99.99,,2013-03-05 10:22:00,
2013-03-05 02:32:00,48.0,-99.9,30.08,WSW,250,11.0,14.0,-999,-99.99,,,-99.99,,2013-03-05 10:32:00,
2013-03-05 02:42:00,48.0,-99.9,30.08,WSW,250,11.0,14.0,-999,-99.99,,,-99.99,,2013-03-05 10:42:00,
2013-03-05 02:52:00,48.0,-99.9,30.08,WSW,250,11.0,14.0,-999,-99.99,,,-99.99,,2013-03-05 10:52:00,
2013-03-05 03:02:00,47.0,-99.9,30.08,WNW,289,6.0,8.0,-999,-99.99,,,-99.99,,2013-03-05 11:02:00,
2013-03-05 03:12:00,47.0,-99.9,30.08,WNW,289,6.0,8.0,-999,-99.99,,,-99.99,,2013-03-05 11:12:00,
2013-03-05 03:22:00,46.0,-99.9,30.07,NW,307,4.0,5.0,-999,-99.99,,,-99.99,,2013-03-05 11:22:00,
2013-03-05 03:32:00,47.0,-99.9,30.07,NW,318,3.0,4.0,-999,-99.99,,,-99.99,,2013-03-05 11:32:00,
2013-03-05 03:42:00,47.0,-99.9,30.06,SE,135,0.0,0.0,-999,-99.99,,,-99.99,,2013-03-05 11:42:00,
2013-03-05 03:52:00,47.0,-99.9,30.06,SE,135,0.0,0.0,-999,-99.99,,,-99.99,,2013-03-05 11:52:00,
2013-03-05 04:03:00,48.0,-99.9,30.06,South,185,5.0,6.0,-999,-99.99,,,-99.99,,2013-03-05 12:03:00,
2013-03-05 04:12:00,48.0,-99.9,30.06,South,185,5.0,6.0,-999,-99.99,,,-99.99,,2013-03-05 12:12:00,
2013-03-05 04:22:00,48.0,-99.9,30.06,South,185,5.0,6.0,-999,-99.99,,,-99.99,,2013-03-05 12:22:00,
2013-03-05 04:32:00,49.0,-99.9,30.07,SW,220,5.0,7.0,-999,-99.99,,,-99.99,,2013-03-05 12:32:00,
2013-03-05 04:42:00,49.0,-99.9,30.07,SW,220,5.0,7.0,-999,-99.99,,,-99.99,,2013-03-05 12:42:00,
2013-03-05 04:53:00,49.0,-99.9,30.07,SW,233,8.0,9.0,-999,-99.99,,,-99.99,,2013-03-05 12:53:00,
2013-03-05 05:02:00,49.0,-99.9,30.07,SW,233,8.0,9.0,-999,-99.99,,,-99.99,,2013-03-05 13:02:00,
2013-03-05 05:12:00,49.0,-99.9,30.07,SW,222,8.0,11.0,-999,-99.99,,,-99.99,,2013-03-05 13:12:00,
2013-03-05 05:22:00,49.0,-99.9,30.07,SW,222,8.0,11.0,-999,-99.99,,,-99.99,,2013-03-05 13:22:00,
2013-03-05 05:32:00,49.0,-99.9,30.07,SW,236,6.0,8.0,-999,-99.99,,,-99.99,,2013-03-05 13:32:00,
2013-03-05 05:42:00,49.0,-99.9,30.07,SW,231,6.0,9.0,-999,-99.99,,,-99.99,,2013-03-05 13:42:00,
2013-03-05 05:52:00,49.0,-99.9,30.06,SW,225,9.0,12.0,-999,-99.99,,,-99.99,,2013-03-05 13:52:00,
2013-03-05 06:02:00,49.0,-99.9,30.06,SW,225,9.0,12.0,-999,-99.99,,,-99.99,,2013-03-05 14:02:00,
2013-03-05 06:11:00,49.0,-99.9,30.06,SSW,212,10.0,16.0,-999,-99.99,,,-99.99,,2013-03-05 14:11:00,
2013-03-05 06:22:00,49.0,-99.9,30.06,South,185,11.0,14.0,-999,-99.99,,,-99.99,,2013-03-05 14:22:00,
2013-03-05 06:32:00,49.0,-99.9,30.06,South,185,11.0,14.0,-999,-99.99,,,-99.99,,2013-03-05 14:32:00,
2013-03-05 06:42:00,49.0,-99.9,30.06,SSW,199,8.0,11.0,-999,-99.99,,,-99.99,,2013-03-05 14:42:00,
2013-03-05 06:52:00,49.0,-99.9,30.06,SSW,209,8.0,13.0,-999,-99.99,,,-99.99,,2013-03-05 14:52:00,
2013-03-05 07:02:00,49.0,-99.9,30.06,SW,214,7.0,11.0,-999,-99.99,,,-99.99,,2013-03-05 15:02:00,
2013-03-05 07:11:00,49.0,-99.9,30.06,SW,214,7.0,11.0,-999,-99.99,,,-99.99,,2013-03-05 15:11:00,
2013-03-05 07:22:00,49.0,-99.9,30.06,SW,214,7.0,11.0,-999,-99.99,,,-99.99,,2013-03-05 15:22:00,
2013-03-05 07:32:00,49.0,-99.9,30.06,SW,214,7.0,11.0,-999,-99.99,,,-99.99,,2013-03-05 15:32:00,
2013-03-05 07:52:00,49.0,-99.9,30.06,SSW,192,13.0,16.0,-999,-99.99,,,-99.99,,2013-03-05 15:52:00,
2013-03-05 08:02:00,49.0,-99.9,30.06,SSW,192,13.0,16.0,-999,-99.99,,,-99.99,,2013-03-05 16:02:00,
2013-03-05 08:11:00,49.0,-99.9,30.06,SSW,192,13.0,16.0,-999,-99.99,,,-99.99,,2013-03-05 16:11:00,
2013-03-05 08:22:00,49.0,-99.9,30.05,South,186,11.0,13.0,-999,-99.99,,,-99.99,,2013-03-05 16:22:00,
2013-03-05 08:32:00,49.0,-99.9,30.06,SSW,194,9.0,11.0,-999,-99.99,,,-99.99,,2013-03-05 16:32:00,
2013-03-05 08:42:00,49.0,-99.9,30.06,SSW,194,9.0,11.0,-999,-99.99,,,-99.99,,2013-03-05 16:42:00,
2013-03-05 08:52:00,49.0,-99.9,30.06,SSW,207,9.0,13.0,-999,-99.99,,,-99.99,,2013-03-05 16:52:00,
2013-03-05 09:01:00,49.0,-99.9,30.06,SSW,207,9.0,13.0,-999,-99.99,,,-99.99,,2013-03-05 17:01:00,
2013-03-05 09:11:00,49.0,-99.9,30.06,South,191,9.0,12.0,-999,-99.99,,,-99.99,,2013-03-05 17:11:00,
2013-03-05 09:22:00,49.0,-99.9,30.06,South,191,9.0,12.0,-999,-99.99,,,-99.99,,2013-03-05 17:22:00,
2013-03-05 09:32:00,49.0,-99.9,30.06,South,191,9.0,12.0,-999,-99.99,,,-99.99,,2013-03-05 17:32:00,
2013-03-05 09:42:00,50.0,-99.9,30.06,SW,217,4.0,8.0,-999,-99.99,,,-99.99,,2013-03-05 17:42:00,
2013-03-05 09:53:00,50.0,-99.9,30.06,SW,217,4.0,8.0,-999,-99.99,,,-99.99,,2013-03-05 17:53:00,
2013-03-05 10:02:00,50.0,-99.9,30.06,SW,217,4.0,8.0,-999,-99.99,,,-99.99,,2013-03-05 18:02:00,
2013-03-05 10:11:00,50.0,-99.9,30.06,SW,217,4.0,8.0,-999,-99.99,,,-99.99,,2013-03-05 18:11:00,
2013-03-05 10:32:00,51.0,-99.9,30.05,SSW,203,4.0,6.0,-999,-99.99,,,-99.99,,2013-03-05 18:32:00,
2013-03-05 10:42:00,51.0,-99.9,30.05,SSW,203,4.0,6.0,-999,-99.99,,,-99.99,,2013-03-05 18:42:00,
2013-03-05 10:53:00,50.0,-99.9,30.05,South,188,6.0,6.0,-999,-99.99,,,-99.99,,2013-03-05 18:53:00,
2013-03-05 11:02:00,50.0,-99.9,30.05,South,188,6.0,6.0,-999,-99.99,,,-99.99,,2013-03-05 19:02:00,
2013-03-05 11:11:00,51.0,-99.9,30.05,SW,217,5.0,8.0,-999,-99.99,,,-99.99,,2013-03-05 19:11:00,
2013-03-05 11:22:00,51.0,-99.9,30.05,SW,217,5.0,8.0,-999,-99.99,,,-99.99,,2013-03-05 19:22:00,
2013-03-05 11:32:00,51.0,-99.9,30.05,SW,217,5.0,8.0,-999,-99.99,,,-99.99,,2013-03-05 19:32:00,
2013-03-05 11:42:00,51.0,-99.9,30.05,SW,217,5.0,8.0,-999,-99.99,,,-99.99,,2013-03-05 19:42:00,
2013-03-05 11:52:00,51.0,-99.9,30.04,SSW,212,11.0,22.0,-999,-99.99,,,-99.99,,2013-03-05 19:52:00,
2013-03-05 12:02:00,51.0,-99.9,30.03,SW,217,15.0,21.0,-999,-99.99,,,-99.99,,2013-03-05 20:02:00,
2013-03-05 12:11:00,51.0,-99.9,30.03,SW,217,15.0,21.0,-999,-99.99,,,-99.99,,2013-03-05 20:11:00,
2013-03-05 12:22:00,51.0,-99.9,30.03,SW,217,15.0,21.0,-999,-99.99,,,-99.99,,2013-03-05 20:22:00,
2013-03-05 12:32:00,51.0,-99.9,30.03,SW,217,15.0,21.0,-999,-99.99,,,-99.99,,2013-03-05 20:32:00,
2013-03-05 12:52:00,52.0,-99.9,30.01,SW,222,15.0,24.0,-999,-99.99,,,-99.99,,2013-03-05 20:52:00,
2013-03-05 13:02:00,52.0,-99.9,30.01,SW,222,15.0,24.0,-999,-99.99,,,-99.99,,2013-03-05 21:02:00,
2013-03-05 13:11:00,52.0,-99.9,30.01,SW,222,15.0,24.0,-999,-99.99,,,-99.99,,2013-03-05 21:11:00,
2013-03-05 13:22:00,52.0,-99.9,30.01,SW,222,15.0,24.0,-999,-99.99,,,-99.99,,2013-03-05 21:22:00,
2013-03-05 13:32:00,53.0,-99.9,29.99,SW,226,20.0,23.0,-999,-99.99,,,-99.99,,2013-03-05 21:32:00,
2013-03-05 13:42:00,53.0,-99.9,29.98,SW,226,21.0,26.0,-999,-99.99,,,-99.99,,2013-03-05 21:42:00,
2013-03-05 13:53:00,53.0,-99.9,29.98,SW,226,21.0,26.0,-999,-99.99,,,-99.99,,2013-03-05 21:53:00,
2013-03-05 14:01:00,53.0,-99.9,29.97,SW,227,22.0,26.0,-999,-99.99,,,-99.99,,2013-03-05 22:01:00,
2013-03-05 14:12:00,53.0,-99.9,29.97,SW,227,22.0,26.0,-999,-99.99,,,-99.99,,2013-03-05 22:12:00,
2013-03-05 14:22:00,54.0,-99.9,29.96,SW,223,17.0,21.0,-999,-99.99,,,-99.99,,2013-03-05 22:22:00,
2013-03-05 14:32:00,54.0,-99.9,29.96,SW,224,18.0,24.0,-999,-99.99,,,-99.99,,2013-03-05 22:32:00,
2013-03-05 14:42:00,54.0,-99.9,29.96,SW,226,20.0,25.0,-999,-99.99,,,-99.99,,2013-03-05 22:42:00,
2013-03-05 14:52:00,54.0,-99.9,29.95,SW,224,19.0,23.0,-999,-99.99,,,-99.99,,2013-03-05 22:52:00,
2013-03-05 15:01:00,54.0,-99.9,29.95,SW,225,21.0,24.0,-999,-99.99,,,-99.99,,2013-03-05 23:01:00,
2013-03-05 15:11:00,55.0,-99.9,29.96,SW,224,15.0,20.0,-999,-99.99,,,-99.99,,2013-03-05 23:11:00,
2013-03-05 15:22:00,55.0,-99.9,29.96,SW,224,15.0,20.0,-999,-99.99,,,-99.99,,2013-03-05 23:22:00,
2013-03-05 15:32:00,55.0,-99.9,29.96,SW,224,15.0,20.0,-999,-99.99,,,-99.99,,2013-03-05 23:32:00,
2013-03-05 15:42:00,55.0,-99.9,29.96,SW,224,15.0,20.0,-999,-99.99,,,-99.99,,2013-03-05 23:42:00,
2013-03-05 15:53:00,55.0,-99.9,29.96,SSE,163,13.0,19.0,-999,-99.99,,,-99.99,,2013-03-05 23:53:00,
2013-03-05 16:02:00,55.0,-99.9,29.96,SSE,163,13.0,19.0,-999,-99.99,,,-99.99,,2013-03-06 00:02:00,
2013-03-05 16:11:00,55.0,-99.9,29.96,SSE,163,13.0,19.0,-999,-99.99,,,-99.99,,2013-03-06 00:11:00,
2013-03-05 16:22:00,55.0,-99.9,29.96,SSE,163,13.0,19.0,-999,-99.99,,,-99.99,,2013-03-06 00:22:00,
2013-03-05 16:32:00,54.0,-99.9,29.93,South,174,18.0,23.0,-999,-99.99,,,-99.99,,2013-03-06 00:32:00,
2013-03-05 16:42:00,55.0,-99.9,29.92,South,170,19.0,25.0,-999,-99.99,,,-99.99,,2013-03-06 00:42:00,
2013-03-05 16:52:00,55.0,-99.9,29.92,South,170,19.0,25.0,-999,-99.99,,,-99.99,,2013-03-06 00:52:00,
2013-03-05 17:02:00,55.0,-99.9,29.91,SSE,168,18.0,23.0,-999,-99.99,,,-99.99,,2013-03-06 01:02:00,
2013-03-05 17:11:00,55.0,-99.9,29.91,SSE,168,18.0,23.0,-999,-99.99,,,-99.99,,2013-03-06 01:11:00,
2013-03-05 17:22:00,55.0,-99.9,29.90,SSE,160,18.0,24.0,-999,-99.99,,,-99.99,,2013-03-06 01:22:00,
2013-03-05 17:32:00,55.0,-99.9,29.90,South,174,18.0,21.0,-999,-99.99,,,-99.99,,2013-03-06 01:32:00,
2013-03-05 17:42:00,55.0,-99.9,29.90,SSE,158,15.0,21.0,-999,-99.99,,,-99.99,,2013-03-06 01:42:00,
2013-03-05 17:52:00,56.0,-99.9,29.89,South,181,22.0,27.0,-999,-99.99,,,-99.99,,2013-03-06 01:52:00,
2013-03-05 18:01:00,55.0,-99.9,29.89,South,177,20.0,25.0,-999,-99.99,,,-99.99,,2013-03-06 02:01:00,
2013-03-05 18:11:00,55.0,-99.9,29.89,South,177,20.0,25.0,-999,-99.99,,,-99.99,,2013-03-06 02:11:00,
2013-03-05 18:22:00,55.0,-99.9,29.88,South,184,24.0,29.0,-999,-99.99,,,-99.99,,2013-03-06 02:22:00,
2013-03-05 18:32:00,55.0,-99.9,29.88,South,184,24.0,29.0,-999,-99.99,,,-99.99,,2013-03-06 02:32:00,
2013-03-05 18:42:00,55.0,-99.9,29.88,South,184,24.0,29.0,-999,-99.99,,,-99.99,,2013-03-06 02:42:00,
2013-03-05 18:52:00,55.0,-99.9,29.88,South,184,24.0,29.0,-999,-99.99,,,-99.99,,2013-03-06 02:52:00,
2013-03-05 19:02:00,55.0,-99.9,29.88,South,180,22.0,28.0,-999,-99.99,,,-99.99,,2013-03-06 03:02:00,
2013-03-05 19:12:00,55.0,-99.9,29.88,South,175,23.0,29.0,-999,-99.99,,,-99.99,,2013-03-06 03:12:00,
2013-03-05 19:22:00,54.0,-99.9,29.88,South,175,24.0,28.0,-999,-99.99,,,-99.99,,2013-03-06 03:22:00,
2013-03-05 19:32:00,54.0,-99.9,29.88,South,175,24.0,28.0,-999,-99.99,,,-99.99,,2013-03-06 03:32:00,
2013-03-05 19:42:00,54.0,-99.9,29.88,South,175,24.0,28.0,-999,-99.99,,,-99.99,,2013-03-06 03:42:00,
2013-03-05 19:53:00,54.0,-99.9,29.85,SSE,164,24.0,32.0,-999,-99.99,,,-99.99,,2013-03-06 03:53:00,
2013-03-05 20:02:00,54.0,-99.9,29.85,SSE,168,23.0,29.0,-999,-99.99,,,-99.99,,2013-03-06 04:02:00,
2013-03-05 20:11:00,54.0,-99.9,29.85,SSE,168,23.0,29.0,-999,-99.99,,,-99.99,,2013-03-06 04:11:00,
2013-03-05 20:22:00,54.0,-99.9,29.84,SSE,168,26.0,34.0,-999,-99.99,,,-99.99,,2013-03-06 04:22:00,
2013-03-05 20:30:00,54.0,-99.9,29.85,SSE,148,27.0,34.0,-999,-99.99,,,-99.99,,2013-03-06 04:30:00,
2013-03-05 20:32:00,54.0,-99.9,29.84,SSE,168,26.0,34.0,-999,-99.99,,,-99.99,,2013-03-06 04:32:00,
2013-03-05 20:42:00,54.0,-99.9,29.84,SSE,168,26.0,34.0,-999,-99.99,,,-99.99,,2013-03-06 04:42:00,
2013-03-05 20:52:00,54.0,-99.9,29.85,SSE,148,27.0,34.0,-999,-99.99,,,-99.99,,2013-03-06 04:52:00,
2013-03-05 21:02:00,54.0,-99.9,29.85,SSE,148,27.0,34.0,-999,-99.99,,,-99.99,,2013-03-06 05:02:00,
2013-03-05 21:12:00,54.0,-99.9,29.85,SSE,148,27.0,34.0,-999,-99.99,,,-99.99,,2013-03-06 05:12:00,
2013-03-05 21:23:00,54.0,-99.9,29.85,SSE,148,27.0,34.0,-999,-99.99,,,-99.99,,2013-03-06 05:23:00,
2013-03-05 21:52:00,53.0,-99.9,29.84,SSE,158,27.0,36.0,-999,-99.99,,,-99.99,,2013-03-06 05:52:00,
2013-03-05 22:02:00,52.0,-99.9,29.84,SSE,149,26.0,33.0,-999,-99.99,,,-99.99,,2013-03-06 06:02:00,
2013-03-05 22:12:00,52.0,-99.9,29.84,SSE,149,26.0,33.0,-999,-99.99,,,-99.99,,2013-03-06 06:12:00,
2013-03-05 22:22:00,52.0,-99.9,29.84,SSE,149,26.0,33.0,-999,-99.99,,,-99.99,,2013-03-06 06:22:00,
2013-03-05 22:32:00,52.0,-99.9,29.83,SE,144,28.0,37.0,-999,-99.99,,,-99.99,,2013-03-06 06:32:00,
2013-03-05 22:42:00,53.0,-99.9,29.83,SSE,147,26.0,33.0,-999,-99.99,,,-99.99,,2013-03-06 06:42:00,
2013-03-05 22:52:00,53.0,-99.9,29.83,SSE,154,23.0,34.0,-999,-99.99,,,-99.99,,2013-03-06 06:52:00,
2013-03-05 23:02:00,53.0,-99.9,29.83,SSE,154,23.0,34.0,-999,-99.99,,,-99.99,,2013-03-06 07:02:00,
2013-03-05 23:11:00,53.0,-99.9,29.83,SSE,154,23.0,34.0,-999,-99.99,,,-99.99,,2013-03-06 07:11:00,
2013-03-05 23:22:00,53.0,-99.9,29.82,South,173,30.0,40.0,-999,-99.99,,,-99.99,,2013-03-06 07:22:00,
2013-03-05 23:32:00,53.0,-99.9,29.82,South,169,34.0,42.0,-999,-99.99,,,-99.99,,2013-03-06 07:32:00,
2013-03-05 23:42:00,53.0,-99.9,29.82,South,169,34.0,42.0,-999,-99.99,,,-99.99,,2013-03-06 07:42:00,
2013-03-05 23:52:00,53.0,-99.9,29.82,South,171,32.0,39.0,-999,-99.99,,,-99.99,,2013-03-06 07:52:00,